createdAt,value
2019-05-25T03:24:03.667Z,33.88
2019-05-25T03:26:38.820Z,32.48
2019-05-25T03:29:13.311Z,34.03
2019-05-25T03:36:13.083Z,29.37
2019-05-25T03:38:48.171Z,19.27
2019-05-25T07:43:02.780Z,29.55
2019-05-25T07:45:36.034Z,30.55
2019-05-25T07:48:09.001Z,38.73
2019-05-25T07:50:42.111Z,30.50
2019-05-25T07:53:15.194Z,31.48
2019-05-25T07:55:48.204Z,34.30
2019-05-25T07:58:23.834Z,31.30
2019-05-25T08:00:56.923Z,31.82
2019-05-25T08:03:30.038Z,31.70
2019-05-25T08:06:03.050Z,30.32
2019-05-25T08:08:36.102Z,33.35
2019-05-25T08:11:10.392Z,36.98
2019-05-25T08:13:44.434Z,38.25
2019-05-25T08:16:17.580Z,37.23
2019-05-25T08:18:50.543Z,41.48
2019-05-25T08:21:25.437Z,25.17
2019-05-25T08:23:58.771Z,44.70
2019-05-25T08:26:32.054Z,37.83
2019-05-25T08:29:05.665Z,27.60
2019-05-25T08:31:39.580Z,27.52
2019-05-25T08:34:14.227Z,32.58
2019-05-25T08:36:49.041Z,27.00
2019-05-25T08:39:24.612Z,25.95
2019-05-25T08:42:00.420Z,39.83
2019-05-25T08:44:36.150Z,28.92
2019-05-25T08:47:10.498Z,31.93
2019-05-25T08:49:45.107Z,26.10
2019-05-25T08:52:22.252Z,28.30
2019-05-25T08:54:56.947Z,24.02
2019-05-25T08:57:30.660Z,29.07
2019-05-25T09:00:05.123Z,28.57
2019-05-25T09:02:40.013Z,32.15
2019-05-25T09:05:14.842Z,33.10
2019-05-25T09:07:47.924Z,27.60
2019-05-25T09:10:21.121Z,28.60
2019-05-25T09:12:55.912Z,25.10
2019-05-25T09:15:29.977Z,23.00
2019-05-25T09:18:05.387Z,27.87
2019-05-25T09:20:38.880Z,22.82
2019-05-25T09:23:15.795Z,24.70
2019-05-25T09:25:48.821Z,27.95
2019-05-25T09:28:25.416Z,24.57
2019-05-25T09:30:58.977Z,23.20
2019-05-25T09:33:32.545Z,30.00
2019-05-25T09:36:09.781Z,31.30
2019-05-25T09:38:43.414Z,25.72
2019-05-25T09:41:17.125Z,28.20
2019-05-25T09:43:50.774Z,23.45
2019-05-25T09:46:24.047Z,23.00
2019-05-25T09:48:59.112Z,27.87
2019-05-25T09:51:32.307Z,25.77
2019-05-25T09:54:07.444Z,21.02
2019-05-25T09:56:42.085Z,23.40
2019-05-25T09:59:20.235Z,20.68
2019-05-25T10:01:51.202Z,23.42
2019-05-25T10:04:24.963Z,28.85
2019-05-25T10:06:58.637Z,24.20
2019-05-25T10:09:40.297Z,24.52
2019-05-25T10:12:16.393Z,25.72
2019-05-25T10:14:50.171Z,28.00
2019-05-25T10:17:23.265Z,27.83
2019-05-25T10:19:59.778Z,18.25
2019-05-25T10:22:38.209Z,25.43
2019-05-25T10:25:11.234Z,24.52
2019-05-25T10:27:45.667Z,24.47
2019-05-25T10:30:23.133Z,29.57
2019-05-25T10:32:56.767Z,19.23
2019-05-25T10:35:32.343Z,19.65
2019-05-25T10:38:06.088Z,19.65
2019-05-25T10:40:40.711Z,21.25
2019-05-25T10:45:47.690Z,20.65
2019-05-25T10:48:21.466Z,21.85
2019-05-25T10:50:54.911Z,24.10
2019-05-25T10:53:33.757Z,18.20
2019-05-25T10:56:08.127Z,24.50
2019-05-25T10:58:44.897Z,16.23
2019-05-25T11:01:18.745Z,28.10
2019-05-25T11:03:54.510Z,20.68
2019-05-25T11:06:40.403Z,15.38
2019-05-25T11:09:14.118Z,17.55
2019-05-25T11:11:48.964Z,21.42
2019-05-25T11:14:22.363Z,17.37
2019-05-25T11:16:58.007Z,17.52
2019-05-25T11:19:35.856Z,15.08
2019-05-25T11:22:11.056Z,19.07
2019-05-25T11:32:37.016Z,14.50
2019-05-25T11:35:11.815Z,15.23
2019-05-25T11:37:45.081Z,22.98
2019-05-25T11:40:19.326Z,26.40
2019-05-25T11:42:56.829Z,14.55
2019-05-25T11:45:31.135Z,13.05
2019-05-25T11:48:09.990Z,15.58
2019-05-25T11:50:43.211Z,33.05
2019-05-25T11:53:16.491Z,13.70
2019-05-25T11:55:51.078Z,16.32
2019-05-25T12:00:58.840Z,12.53
2019-05-25T12:03:33.951Z,19.02
2019-05-25T12:06:10.573Z,14.78
2019-05-25T12:08:48.444Z,15.50
2019-05-25T12:11:23.988Z,19.80
2019-05-25T12:13:57.441Z,17.70
2019-05-25T12:16:31.905Z,14.87
2019-05-25T12:19:06.971Z,19.73
2019-05-25T12:21:40.297Z,12.23
2019-05-25T12:24:13.669Z,15.70
2019-05-25T12:26:47.749Z,14.20
2019-05-25T12:29:21.031Z,13.58
2019-05-25T12:32:03.753Z,19.87
2019-05-25T12:34:29.466Z,19.50
2019-05-25T12:37:04.493Z,15.53
2019-05-25T12:39:40.267Z,18.05
2019-05-25T12:42:15.002Z,20.35
2019-05-25T12:44:53.540Z,16.15
2019-05-25T12:47:26.591Z,17.42
2019-05-25T12:49:59.879Z,22.02
2019-05-25T12:52:33.262Z,17.63
2019-05-25T12:55:07.077Z,14.03
2019-05-25T12:57:41.800Z,23.57
2019-05-25T13:00:18.955Z,19.05
2019-05-25T13:02:52.695Z,13.28
2019-05-25T13:05:34.174Z,16.63
2019-05-25T13:08:07.205Z,15.18
2019-05-25T13:10:40.591Z,13.57
2019-05-25T13:13:14.082Z,17.63
2019-05-25T13:15:47.341Z,15.90
2019-05-25T13:18:20.454Z,21.52
2019-05-25T13:20:53.562Z,14.40
2019-05-25T13:23:28.825Z,17.15
2019-05-25T13:26:02.196Z,17.05
2019-05-25T13:28:47.023Z,17.27
2019-05-25T13:31:12.013Z,20.08
2019-05-25T13:33:49.553Z,12.65
2019-05-25T13:36:24.786Z,14.78
2019-05-25T13:38:57.991Z,14.03
2019-05-25T13:41:31.041Z,14.05
2019-05-25T13:44:04.058Z,16.60
2019-05-25T13:46:37.388Z,10.75
2019-05-25T13:49:12.199Z,13.68
2019-05-25T13:51:45.329Z,13.25
2019-05-25T13:54:20.700Z,15.95
2019-05-25T13:56:55.771Z,13.95
2019-05-25T13:59:28.772Z,16.57
2019-05-25T14:02:04.355Z,13.58
2019-05-25T14:04:38.371Z,11.68
2019-05-25T14:07:11.483Z,11.97
2019-05-25T14:09:51.293Z,11.03
2019-05-25T14:12:19.474Z,13.10
2019-05-25T14:14:54.216Z,10.65
2019-05-25T14:17:27.243Z,10.53
2019-05-25T14:20:00.407Z,13.68
2019-05-25T14:22:33.901Z,14.70
2019-05-25T14:25:07.964Z,13.83
2019-05-25T14:27:41.970Z,11.55
2019-05-25T14:30:25.287Z,10.58
2019-05-25T14:32:58.553Z,13.28
2019-05-25T14:35:31.752Z,13.38
2019-05-25T14:38:04.764Z,11.78
2019-05-25T14:40:37.914Z,12.95
2019-05-25T14:43:11.117Z,13.13
2019-05-25T14:45:44.380Z,15.60
2019-05-25T14:48:25.100Z,12.13
2019-05-25T14:50:52.259Z,11.22
2019-05-25T14:53:25.617Z,10.00
2019-05-25T14:55:58.990Z,10.93
2019-05-25T14:58:34.312Z,9.97
2019-05-25T15:01:07.558Z,11.85
2019-05-25T15:03:40.558Z,13.80
2019-05-25T15:06:14.437Z,9.58
2019-05-25T15:08:47.711Z,17.17
2019-05-25T15:11:24.773Z,9.30
2019-05-25T15:13:59.479Z,12.82
2019-05-25T15:16:34.332Z,11.88
2019-05-25T15:19:10.883Z,14.58
2019-05-25T15:21:43.910Z,11.12
2019-05-25T15:24:17.509Z,14.87
2019-05-25T15:26:50.613Z,11.95
2019-05-25T15:29:26.656Z,13.50
2019-05-25T15:31:59.711Z,13.08
2019-05-25T15:34:51.807Z,14.47
2019-05-25T15:37:24.837Z,14.83
